createdAt,value
2022-12-15T00:02:19.748Z,95367.75
2022-12-15T00:05:05.267Z,95363.06
2022-12-15T00:07:50.595Z,95357.44
2022-12-15T00:10:35.901Z,95357.22
2022-12-15T00:13:21.091Z,95368.19
2022-12-15T00:16:06.542Z,95373.09
2022-12-15T00:18:53.247Z,95365.06
2022-12-15T00:21:38.688Z,95363.59
2022-12-15T00:24:24.466Z,95366.16
2022-12-15T00:27:09.851Z,95366.44
2022-12-15T00:29:55.349Z,95367.22
2022-12-15T00:32:41.030Z,95370.47
2022-12-15T00:35:27.422Z,95362.94
2022-12-15T00:38:12.644Z,95375.88
2022-12-15T00:40:40.369Z,95387.75
2022-12-15T00:43:11.803Z,95391.25
2022-12-15T00:45:56.865Z,95396.66
2022-12-15T00:48:24.402Z,95408.00
2022-12-15T00:50:52.339Z,95402.53
2022-12-15T00:53:38.151Z,95414.13
2022-12-15T00:56:23.642Z,95412.84
2022-12-15T00:59:09.137Z,95412.19
2022-12-15T01:01:54.541Z,95398.69
2022-12-15T01:04:39.956Z,95398.69
2022-12-15T01:07:26.721Z,95410.84
2022-12-15T01:10:12.058Z,95415.41
2022-12-15T01:12:57.427Z,95411.56
2022-12-15T01:15:42.841Z,95406.63
2022-12-15T01:18:28.196Z,95409.59
2022-12-15T01:20:56.646Z,95422.97
2022-12-15T01:23:25.822Z,95434.56
2022-12-15T01:25:54.434Z,95427.81
2022-12-15T01:28:22.856Z,95439.38
2022-12-15T01:30:50.553Z,95453.41
2022-12-15T01:33:19.570Z,95457.13
2022-12-15T01:35:56.435Z,95457.66
2022-12-15T01:38:25.480Z,95475.16
2022-12-15T01:40:54.337Z,95469.47
2022-12-15T01:43:24.391Z,95476.22
2022-12-15T01:46:02.457Z,95486.09
2022-12-15T01:48:35.887Z,95494.03
2022-12-15T01:51:10.360Z,95490.69
2022-12-15T01:53:44.889Z,95492.44
2022-12-15T01:56:13.248Z,95480.50
2022-12-15T01:58:44.398Z,95471.59
2022-12-15T02:01:12.349Z,95474.97
2022-12-15T02:03:40.810Z,95473.38
2022-12-15T02:06:09.673Z,95482.00
2022-12-15T02:08:38.494Z,95487.13
2022-12-15T02:11:22.765Z,95481.72
2022-12-15T02:13:58.292Z,95498.44
2022-12-15T02:16:35.585Z,95492.88
2022-12-15T02:19:14.123Z,95486.00
2022-12-15T02:21:47.756Z,95490.31
2022-12-15T02:24:36.947Z,95494.34
2022-12-15T02:27:20.543Z,95495.69
2022-12-15T02:30:18.214Z,95490.25
2022-12-15T02:32:54.222Z,95482.19
2022-12-15T02:35:27.057Z,95487.75
2022-12-15T02:37:54.437Z,95486.78
2022-12-15T02:40:22.216Z,95493.31
2022-12-15T02:42:55.093Z,95496.28
2022-12-15T02:45:26.918Z,95501.13
2022-12-15T02:49:19.213Z,95503.81
2022-12-15T02:52:01.329Z,95507.34
2022-12-15T02:54:42.930Z,95510.69
2022-12-15T02:57:18.989Z,95510.56
2022-12-15T02:59:55.461Z,95517.97
2022-12-15T03:02:26.226Z,95497.63
2022-12-15T03:04:56.159Z,95508.13
2022-12-15T03:07:24.443Z,95515.31
2022-12-15T03:09:53.002Z,95521.38
2022-12-15T03:12:20.556Z,95517.72
2022-12-15T03:14:48.117Z,95520.69
2022-12-15T03:17:15.666Z,95509.47
2022-12-15T03:19:43.201Z,95516.06
2022-12-15T03:22:12.472Z,95506.91
2022-12-15T03:24:40.111Z,95501.91
2022-12-15T03:27:07.618Z,95502.47
2022-12-15T03:29:35.240Z,95510.28
2022-12-15T03:32:02.859Z,95506.25
2022-12-15T03:34:30.536Z,95504.34
2022-12-15T03:36:59.172Z,95503.94
2022-12-15T03:39:28.176Z,95510.69
2022-12-15T03:41:55.750Z,95512.94
2022-12-15T03:44:23.309Z,95512.16
2022-12-15T03:46:51.015Z,95520.78
2022-12-15T03:49:18.542Z,95533.75
2022-12-15T03:51:46.200Z,95533.75
2022-12-15T03:54:13.930Z,95540.47
2022-12-15T03:56:42.808Z,95541.13
2022-12-15T03:59:10.318Z,95528.84
2022-12-15T04:01:38.540Z,95529.94
2022-12-15T04:04:06.487Z,95538.03
2022-12-15T04:06:34.122Z,95539.38
2022-12-15T04:09:01.686Z,95552.59
2022-12-15T04:11:29.240Z,95555.66
2022-12-15T04:13:58.162Z,95555.41
2022-12-15T04:16:25.729Z,95550.94
2022-12-15T04:19:13.280Z,95550.41
2022-12-15T04:21:39.898Z,95556.63
2022-12-15T04:24:25.373Z,95556.88
2022-12-15T04:27:10.567Z,95565.91
2022-12-15T04:29:57.218Z,95581.16
2022-12-15T04:32:42.632Z,95586.97
2022-12-15T04:35:28.756Z,95590.06
2022-12-15T04:38:14.130Z,95576.28
2022-12-15T04:40:59.394Z,95585.19
2022-12-15T04:43:44.736Z,95586.59
2022-12-15T04:46:31.412Z,95593.06
2022-12-15T04:49:16.662Z,95593.34
2022-12-15T04:52:02.182Z,95590.50
2022-12-15T04:54:47.475Z,95585.09
2022-12-15T04:57:32.809Z,95582.28
2022-12-15T05:00:18.286Z,95591.19
2022-12-15T05:03:04.961Z,95589.03
2022-12-15T05:05:50.043Z,95585.81
2022-12-15T05:08:35.441Z,95597.81
2022-12-15T05:11:20.469Z,95597.41
2022-12-15T05:14:05.865Z,95596.84
2022-12-15T05:16:51.234Z,95595.25
2022-12-15T05:19:37.813Z,95588.22
2022-12-15T05:22:23.021Z,95583.22
2022-12-15T05:25:08.375Z,95582.56
2022-12-15T05:27:53.685Z,95586.31
2022-12-15T05:30:39.029Z,95590.88
2022-12-15T05:33:06.574Z,95596.41
2022-12-15T05:35:35.465Z,95597.09
2022-12-15T05:38:03.068Z,95603.81
2022-12-15T05:40:30.613Z,95603.81
2022-12-15T05:42:58.954Z,95605.56
2022-12-15T05:45:26.784Z,95601.13
2022-12-15T05:47:54.898Z,95600.88
2022-12-15T05:50:23.452Z,95600.22
2022-12-15T05:52:52.376Z,95604.00
2022-12-15T05:55:20.247Z,95610.88
2022-12-15T05:57:52.516Z,95610.63
2022-12-15T06:00:20.607Z,95605.22
2022-12-15T06:02:48.255Z,95589.53
2022-12-15T06:05:18.145Z,95598.06
2022-12-15T06:07:45.748Z,95598.56
2022-12-15T06:10:14.947Z,95598.69
2022-12-15T06:12:42.511Z,95595.44
2022-12-15T06:15:10.915Z,95597.28
2022-12-15T06:17:38.523Z,95603.44
2022-12-15T06:20:07.183Z,95612.63
2022-12-15T06:22:34.706Z,95606.41
2022-12-15T06:25:02.269Z,95609.09
2022-12-15T06:27:31.190Z,95613.88
2022-12-15T06:29:58.742Z,95608.88
2022-12-15T06:32:26.320Z,95609.66
2022-12-15T06:34:53.858Z,95611.31
2022-12-15T06:37:21.388Z,95610.22
2022-12-15T06:39:48.938Z,95604.13
2022-12-15T06:42:16.527Z,95606.97
2022-12-15T06:44:45.376Z,95600.50
2022-12-15T06:47:12.985Z,95618.59
2022-12-15T06:49:40.589Z,95627.25
2022-12-15T06:52:09.064Z,95625.63
2022-12-15T06:54:36.582Z,95641.28
2022-12-15T06:57:04.357Z,95654.53
2022-12-15T06:59:31.903Z,95636.22
2022-12-15T07:02:01.313Z,95645.13
2022-12-15T07:04:29.070Z,95647.25
2022-12-15T07:06:56.893Z,95653.91
2022-12-15T07:09:26.097Z,95663.59
2022-12-15T07:11:54.289Z,95640.69
2022-12-15T07:14:23.070Z,95642.84
2022-12-15T07:16:50.590Z,95647.59
2022-12-15T07:19:19.503Z,95661.34
2022-12-15T07:21:47.220Z,95653.81
2022-12-15T07:24:15.130Z,95639.34
2022-12-15T07:26:43.151Z,95636.00
2022-12-15T07:29:11.798Z,95631.97
2022-12-15T07:31:39.756Z,95644.63
2022-12-15T07:34:07.401Z,95627.09
2022-12-15T07:36:36.341Z,95633.69
2022-12-15T07:39:05.318Z,95662.41
2022-12-15T07:41:33.510Z,95674.81
2022-12-15T07:44:02.280Z,95672.63
2022-12-15T07:46:30.250Z,95676.56
2022-12-15T07:48:57.908Z,95674.66
2022-12-15T07:51:25.442Z,95671.44
2022-12-15T07:53:54.315Z,95653.09
2022-12-15T07:56:21.938Z,95655.13
2022-12-15T07:58:50.075Z,95665.38
2022-12-15T08:01:18.090Z,95656.06
2022-12-15T08:03:45.972Z,95648.66
2022-12-15T08:06:15.661Z,95651.38
2022-12-15T08:08:50.370Z,95659.56
2022-12-15T08:11:22.041Z,95664.44
2022-12-15T08:14:10.527Z,95666.84
2022-12-15T08:16:38.517Z,95658.34
2022-12-15T08:19:08.026Z,95673.84
2022-12-15T08:21:35.820Z,95685.88
2022-12-15T08:24:04.105Z,95694.22
2022-12-15T08:26:32.959Z,95708.69
2022-12-15T08:29:32.010Z,95707.72
2022-12-15T08:31:51.470Z,95721.22
2022-12-15T08:34:19.160Z,95727.00
2022-12-15T08:36:46.685Z,95717.16
2022-12-15T08:39:14.194Z,95709.47
2022-12-15T08:41:43.237Z,95712.31
2022-12-15T08:44:10.817Z,95720.78
2022-12-15T08:46:38.393Z,95724.03
2022-12-15T08:49:06.155Z,95727.41
2022-12-15T08:51:34.419Z,95729.03
2022-12-15T08:54:02.306Z,95722.16
2022-12-15T08:56:30.223Z,95708.53
2022-12-15T08:59:00.788Z,95709.34
2022-12-15T09:01:31.393Z,95720.78
2022-12-15T09:03:59.451Z,95729.56
2022-12-15T09:06:30.140Z,95721.34
2022-12-15T09:08:58.983Z,95719.06
2022-12-15T09:11:27.767Z,95708.00
2022-12-15T09:13:55.648Z,95713.94
2022-12-15T09:16:25.448Z,95711.50
2022-12-15T09:18:54.959Z,95715.81
2022-12-15T09:21:25.073Z,95720.81
2022-12-15T09:23:54.325Z,95712.84
2022-12-15T09:26:23.510Z,95722.56
2022-12-15T09:28:51.899Z,95712.31
2022-12-15T09:31:22.213Z,95703.94
2022-12-15T09:33:53.881Z,95695.88
2022-12-15T09:36:22.341Z,95699.06
2022-12-15T09:38:50.313Z,95691.81
2022-12-15T09:41:23.537Z,95702.31
2022-12-15T09:43:56.726Z,95711.19
2022-12-15T09:46:32.041Z,95700.38
2022-12-15T09:49:05.492Z,95698.91
2022-12-15T09:51:40.228Z,95694.16
2022-12-15T09:54:11.079Z,95692.28
2022-12-15T09:56:43.945Z,95693.06
2022-12-15T09:59:34.015Z,95687.53
2022-12-15T10:02:18.632Z,95694.66
2022-12-15T10:04:55.677Z,95699.38
2022-12-15T10:07:29.753Z,95698.94
2022-12-15T10:09:57.630Z,95698.69
2022-12-15T10:12:29.764Z,95699.06
2022-12-15T10:15:13.477Z,95696.06
2022-12-15T10:17:50.181Z,95693.75
2022-12-15T10:20:21.449Z,95688.19
2022-12-15T10:22:50.426Z,95691.41
2022-12-15T10:25:27.591Z,95676.53
2022-12-15T10:28:17.027Z,95676.13
2022-12-15T10:30:53.124Z,95672.75
2022-12-15T10:33:24.135Z,95682.06
2022-12-15T10:35:54.446Z,95680.16
2022-12-15T10:38:32.669Z,95670.41
2022-12-15T10:41:02.737Z,95675.78
2022-12-15T10:43:34.584Z,95677.78
2022-12-15T10:46:05.513Z,95675.56
2022-12-15T10:48:33.023Z,95687.19
2022-12-15T10:51:18.235Z,95691.34
2022-12-15T10:53:50.462Z,95692.00
2022-12-15T10:56:24.829Z,95689.16
2022-12-15T10:59:00.082Z,95694.31
2022-12-15T11:01:29.763Z,95690.09
2022-12-15T11:03:57.695Z,95678.91
2022-12-15T11:06:29.231Z,95672.13
2022-12-15T11:08:58.547Z,95679.97
2022-12-15T11:11:47.051Z,95677.56
2022-12-15T11:14:19.499Z,95669.56
2022-12-15T11:16:50.985Z,95667.66
2022-12-15T11:19:31.192Z,95664.00
2022-12-15T11:22:04.542Z,95660.97
2022-12-15T11:24:37.420Z,95655.56
2022-12-15T11:27:07.545Z,95646.63
2022-12-15T11:29:50.137Z,95636.63
2022-12-15T11:32:22.984Z,95630.03
2022-12-15T11:34:50.823Z,95632.72
2022-12-15T11:37:37.860Z,95636.41
2022-12-15T11:40:24.749Z,95622.75
2022-12-15T11:43:04.683Z,95622.09
2022-12-15T11:45:42.615Z,95628.03
2022-12-15T11:48:14.849Z,95629.34
2022-12-15T11:50:54.198Z,95627.97
2022-12-15T11:53:46.146Z,95626.41
2022-12-15T11:56:23.904Z,95619.06
2022-12-15T11:59:00.840Z,95627.16
2022-12-15T12:01:55.418Z,95623.34
2022-12-15T12:04:28.055Z,95617.22
2022-12-15T12:07:09.488Z,95612.41
2022-12-15T12:09:48.692Z,95607.72
2022-12-15T12:12:26.954Z,95603.00
2022-12-15T12:15:08.071Z,95594.00
2022-12-15T12:17:42.182Z,95585.63
2022-12-15T12:20:18.580Z,95582.22
2022-12-15T12:22:54.473Z,95576.16
2022-12-15T12:25:26.875Z,95570.50
2022-12-15T12:27:57.044Z,95562.13
2022-12-15T12:30:31.145Z,95572.78
2022-12-15T12:33:07.403Z,95572.34
2022-12-15T12:35:43.004Z,95567.53
2022-12-15T12:38:12.031Z,95562.75
2022-12-15T12:40:52.343Z,95558.78
2022-12-15T12:43:31.684Z,95566.84
2022-12-15T12:46:04.970Z,95560.44
2022-12-15T12:48:37.591Z,95549.06
2022-12-15T12:51:18.668Z,95547.59
2022-12-15T12:53:46.183Z,95546.47
2022-12-15T12:56:40.014Z,95545.09
2022-12-15T12:59:37.358Z,95536.41
2022-12-15T13:02:42.677Z,95530.97
2022-12-15T13:05:26.021Z,95531.31
2022-12-15T13:07:57.210Z,95524.91
2022-12-15T13:10:26.674Z,95530.38
2022-12-15T13:12:56.890Z,95521.41
2022-12-15T13:15:36.014Z,95517.25
2022-12-15T13:18:09.115Z,95518.84
2022-12-15T13:20:37.978Z,95526.22
2022-12-15T13:23:43.763Z,95508.19
2022-12-15T13:26:14.785Z,95513.63
2022-12-15T13:28:48.937Z,95510.41
2022-12-15T13:31:27.465Z,95501.53
2022-12-15T13:34:12.955Z,95502.97
2022-12-15T13:36:54.452Z,95498.44
2022-12-15T13:39:58.093Z,95498.84
2022-12-15T13:42:44.513Z,95500.75
2022-12-15T13:45:48.915Z,95500.84
2022-12-15T13:48:35.833Z,95491.19
2022-12-15T13:51:11.411Z,95495.00
2022-12-15T13:53:44.279Z,95495.28
2022-12-15T13:56:38.652Z,95497.72
2022-12-15T13:59:15.115Z,95493.09
2022-12-15T14:01:52.009Z,95503.38
2022-12-15T14:04:21.327Z,95498.81
2022-12-15T14:06:51.004Z,95494.28
2022-12-15T14:09:23.291Z,95494.44
2022-12-15T14:11:53.526Z,95488.00
2022-12-15T14:14:25.613Z,95484.56
2022-12-15T14:17:01.140Z,95484.50
2022-12-15T14:19:39.503Z,95466.44
2022-12-15T14:22:27.068Z,95473.13
2022-12-15T14:25:01.306Z,95470.22
2022-12-15T14:27:30.636Z,95460.22
2022-12-15T14:30:26.569Z,95479.66
2022-12-15T14:33:07.171Z,95478.06
2022-12-15T14:35:39.845Z,95476.59
2022-12-15T14:38:13.437Z,95463.91
2022-12-15T14:40:42.536Z,95462.00
2022-12-15T14:43:22.699Z,95458.97
2022-12-15T14:45:55.320Z,95469.59
2022-12-15T14:51:18.782Z,95471.94
2022-12-15T14:53:50.071Z,95475.69
2022-12-15T14:56:30.412Z,95478.75
2022-12-15T14:59:03.680Z,95486.03
2022-12-15T15:01:34.517Z,95491.38
2022-12-15T15:03:14.538Z,95472.69
2022-12-15T15:04:05.386Z,95495.69
2022-12-15T15:06:36.744Z,95493.94
2022-12-15T15:09:16.667Z,95490.25
2022-12-15T15:11:44.653Z,95485.13
2022-12-15T15:14:15.916Z,95484.19
2022-12-15T15:16:44.107Z,95485.63
2022-12-15T15:19:20.567Z,95484.38
2022-12-15T15:21:48.777Z,95494.34
2022-12-15T15:24:25.538Z,95494.66
2022-12-15T15:26:53.671Z,95494.94
2022-12-15T15:29:39.433Z,95491.06
2022-12-15T15:32:15.097Z,95487.53
2022-12-15T15:34:44.873Z,95492.69
2022-12-15T15:37:18.779Z,95485.13
2022-12-15T15:39:48.376Z,95493.47
2022-12-15T15:42:16.236Z,95489.81
2022-12-15T15:44:43.873Z,95491.13
2022-12-15T15:47:21.046Z,95486.63
2022-12-15T15:49:50.908Z,95481.38
2022-12-15T15:52:18.574Z,95478.63
2022-12-15T15:54:46.748Z,95487.16
2022-12-15T15:57:16.065Z,95492.13
2022-12-15T15:59:44.197Z,95491.47
2022-12-15T16:02:13.298Z,95492.72
2022-12-15T16:04:42.219Z,95493.53
2022-12-15T16:07:21.443Z,95498.50
2022-12-15T16:09:49.478Z,95491.91
2022-12-15T16:12:27.695Z,95491.25
2022-12-15T16:14:55.610Z,95491.25
2022-12-15T16:17:23.934Z,95477.09
2022-12-15T16:19:51.488Z,95479.66
2022-12-15T16:22:22.371Z,95474.03
2022-12-15T16:24:49.914Z,95484.59
2022-12-15T16:27:17.521Z,95486.50
2022-12-15T16:29:45.163Z,95486.81
2022-12-15T16:32:13.306Z,95479.44
2022-12-15T16:34:41.920Z,95474.44
2022-12-15T16:37:25.916Z,95465.28
2022-12-15T16:39:53.580Z,95462.84
2022-12-15T16:42:21.095Z,95466.66
2022-12-15T16:44:48.608Z,95463.94
2022-12-15T16:47:16.319Z,95475.81
2022-12-15T16:49:43.897Z,95472.31
2022-12-15T16:52:19.343Z,95486.91
2022-12-15T16:54:50.117Z,95489.31
2022-12-15T16:57:18.403Z,95481.63
2022-12-15T16:59:46.049Z,95492.84
2022-12-15T17:02:29.206Z,95484.34
2022-12-15T17:04:57.341Z,95486.25
2022-12-15T17:07:27.524Z,95489.63
2022-12-15T17:09:57.323Z,95487.41
2022-12-15T17:12:24.890Z,95480.22
2022-12-15T17:14:52.408Z,95468.72
2022-12-15T17:17:21.054Z,95456.53
2022-12-15T17:20:19.805Z,95457.84
2022-12-15T17:22:37.606Z,95454.66
2022-12-15T17:25:07.172Z,95450.16
2022-12-15T17:27:34.755Z,95444.88
2022-12-15T17:30:02.781Z,95439.75
2022-12-15T17:32:30.503Z,95440.72
2022-12-15T17:34:58.149Z,95432.06
2022-12-15T17:37:28.070Z,95430.13
2022-12-15T17:39:58.005Z,95429.81
2022-12-15T17:42:27.152Z,95416.31
2022-12-15T17:44:54.786Z,95418.91
2022-12-15T17:47:24.165Z,95411.19
2022-12-15T17:49:51.676Z,95407.81
2022-12-15T17:52:26.773Z,95401.22
2022-12-15T17:54:55.349Z,95408.28
2022-12-15T17:57:22.970Z,95404.41
2022-12-15T17:59:51.862Z,95396.69
2022-12-15T18:02:20.117Z,95393.19
2022-12-15T18:04:47.737Z,95394.78
2022-12-15T18:07:19.143Z,95388.84
2022-12-15T18:09:47.627Z,95394.94
2022-12-15T18:12:23.424Z,95393.19
2022-12-15T18:14:53.063Z,95398.97
2022-12-15T18:17:21.389Z,95403.16
2022-12-15T18:19:49.027Z,95402.34
2022-12-15T18:22:22.058Z,95399.91
2022-12-15T18:24:50.600Z,95404.13
2022-12-15T18:27:21.970Z,95412.63
2022-12-15T18:29:49.479Z,95404.13
2022-12-15T18:32:18.935Z,95396.69
2022-12-15T18:34:46.852Z,95395.09
2022-12-15T18:37:17.277Z,95397.94
2022-12-15T18:39:45.108Z,95396.34
2022-12-15T18:42:15.475Z,95402.75
2022-12-15T18:44:46.855Z,95394.38
2022-12-15T18:47:18.521Z,95390.88
2022-12-15T18:49:46.275Z,95385.75
2022-12-15T18:52:17.664Z,95379.63
2022-12-15T18:54:45.627Z,95375.47
2022-12-15T18:57:26.395Z,95380.63
2022-12-15T18:59:54.619Z,95381.41
2022-12-15T19:02:23.656Z,95382.88
2022-12-15T19:04:51.289Z,95386.44
2022-12-15T19:07:18.830Z,95383.91
2022-12-15T19:09:46.341Z,95378.47
2022-12-15T19:12:21.547Z,95371.41
2022-12-15T19:14:50.879Z,95367.91
2022-12-15T19:17:52.323Z,95357.63
2022-12-15T19:20:39.060Z,95347.63
2022-12-15T19:23:07.663Z,95350.00
2022-12-15T19:25:36.207Z,95333.16
2022-12-15T19:28:03.870Z,95348.56
2022-12-15T19:30:38.579Z,95346.97
2022-12-15T19:33:09.383Z,95342.13
2022-12-15T19:35:39.372Z,95342.44
2022-12-15T19:38:08.153Z,95335.03
2022-12-15T19:40:37.374Z,95338.38
2022-12-15T19:43:05.187Z,95327.59
2022-12-15T19:45:33.849Z,95329.50
2022-12-15T19:48:01.416Z,95341.41
2022-12-15T19:50:31.137Z,95337.84
2022-12-15T19:53:01.925Z,95333.38
2022-12-15T19:55:32.582Z,95335.00
2022-12-15T19:58:00.826Z,95334.53
2022-12-15T20:00:28.398Z,95325.72
2022-12-15T20:02:56.644Z,95323.22
2022-12-15T20:05:26.041Z,95308.78
2022-12-15T20:07:54.812Z,95310.75
2022-12-15T20:10:31.896Z,95307.69
2022-12-15T20:13:00.500Z,95305.28
2022-12-15T20:15:28.159Z,95310.09
2022-12-15T20:17:57.424Z,95305.41
2022-12-15T20:20:27.263Z,95308.78
2022-12-15T20:22:57.650Z,95306.22
2022-12-15T20:25:29.528Z,95310.69
2022-12-15T20:28:00.227Z,95304.63
2022-12-15T20:30:29.859Z,95301.72
2022-12-15T20:32:57.503Z,95299.00
2022-12-15T20:35:41.402Z,95305.25
2022-12-15T20:38:37.668Z,95304.44
2022-12-15T20:41:24.837Z,95296.91
2022-12-15T20:43:59.768Z,95304.75
2022-12-15T20:46:40.463Z,95305.06
2022-12-15T20:49:16.221Z,95305.38
2022-12-15T20:51:44.882Z,95299.44
2022-12-15T20:54:18.906Z,95303.13
2022-12-15T20:56:48.708Z,95311.91
2022-12-15T20:59:17.166Z,95317.38
2022-12-15T21:01:46.368Z,95327.97
2022-12-15T21:04:24.900Z,95331.19
2022-12-15T21:06:54.888Z,95337.75
2022-12-15T21:09:26.785Z,95331.38
2022-12-15T21:11:55.950Z,95315.13
2022-12-15T21:14:25.273Z,95315.97
2022-12-15T21:16:52.816Z,95307.16
2022-12-15T21:19:22.052Z,95305.88
2022-12-15T21:21:52.999Z,95301.03
2022-12-15T21:24:25.864Z,95306.78
2022-12-15T21:26:55.221Z,95304.69
2022-12-15T21:29:24.852Z,95309.63
2022-12-15T21:31:52.604Z,95293.75
2022-12-15T21:34:20.235Z,95302.53
2022-12-15T21:36:52.569Z,95297.06
2022-12-15T21:39:25.756Z,95300.41
2022-12-15T21:41:55.044Z,95308.69
2022-12-15T21:44:22.846Z,95304.97
2022-12-15T21:46:50.447Z,95302.06
2022-12-15T21:49:18.700Z,95298.97
2022-12-15T21:51:49.494Z,95310.34
2022-12-15T21:54:20.408Z,95305.53
2022-12-15T21:56:49.420Z,95303.56
2022-12-15T21:59:21.091Z,95301.59
2022-12-15T22:01:49.392Z,95302.03
2022-12-15T22:04:20.195Z,95300.59
2022-12-15T22:06:50.890Z,95299.94
2022-12-15T22:09:19.404Z,95295.72
2022-12-15T22:11:50.759Z,95304.41
2022-12-15T22:14:26.386Z,95311.44
2022-12-15T22:16:54.239Z,95305.66
2022-12-15T22:19:22.767Z,95299.84
2022-12-15T22:21:50.509Z,95300.16
2022-12-15T22:24:19.793Z,95303.97
2022-12-15T22:26:47.836Z,95303.97
2022-12-15T22:29:18.506Z,95302.34
2022-12-15T22:31:48.255Z,95298.06
2022-12-15T22:34:17.991Z,95295.97
2022-12-15T22:36:45.762Z,95301.47
2022-12-15T22:39:14.742Z,95296.97
2022-12-15T22:41:44.652Z,95309.00
2022-12-15T22:44:17.772Z,95306.31
2022-12-15T22:46:47.515Z,95305.84
2022-12-15T22:49:18.524Z,95307.31
2022-12-15T22:51:47.071Z,95317.56
2022-12-15T22:54:21.577Z,95310.66
2022-12-15T22:56:52.951Z,95318.09
2022-12-15T22:59:28.069Z,95322.41
2022-12-15T23:01:57.155Z,95319.84
2022-12-15T23:04:25.276Z,95318.22
2022-12-15T23:06:52.915Z,95321.44
2022-12-15T23:09:22.680Z,95320.50
2022-12-15T23:11:49.226Z,95325.63
2022-12-15T23:14:18.861Z,95332.66
2022-12-15T23:16:46.446Z,95329.44
2022-12-15T23:19:23.850Z,95327.81
2022-12-15T23:21:52.107Z,95327.03
2022-12-15T23:24:19.870Z,95335.97
2022-12-15T23:26:47.468Z,95331.41
2022-12-15T23:29:15.154Z,95337.00
2022-12-15T23:31:43.128Z,95343.75
2022-12-15T23:34:11.399Z,95335.22
2022-12-15T23:36:40.338Z,95334.44
2022-12-15T23:39:07.892Z,95337.31
2022-12-15T23:41:36.073Z,95345.00
2022-12-15T23:44:03.654Z,95337.00
2022-12-15T23:46:31.207Z,95330.09
2022-12-15T23:49:00.139Z,95329.63
2022-12-15T23:51:27.677Z,95331.50
2022-12-15T23:53:56.556Z,95329.09
2022-12-15T23:56:25.352Z,95336.50
2022-12-15T23:58:56.183Z,95334.75
